Time;durP1;ratioP1;P1;durP2;ratioP2;P2;SDS_P1;SDS_P2;PMS_P1;PMS_P2;Temp;Humidity;BMP_temperature;BMP_pressure;BME280_temperature;BME280_humidity;BME280_pressure;Samples;Min_cycle;Max_cycle;Signal;HPM_P1;HPM_P2
2022/11/13 00:00:09;;;;;;;52.58;27.10;;;;;;;12.37;65.26;100273.34;4497799;31;20096;-80
2022/11/13 00:02:34;;;;;;;52.72;27.48;;;;;;;12.31;65.42;100270.09;4487269;31;20432;-80
2022/11/13 00:04:59;;;;;;;50.80;26.67;;;;;;;12.30;65.52;100265.69;4486830;31;20076;-80
2022/11/13 00:07:26;;;;;;;55.38;27.00;;;;;;;12.29;65.65;100266.63;4464930;31;20472;-81
2022/11/13 00:09:51;;;;;;;53.03;26.95;;;;;;;12.29;65.67;100264.84;4487244;31;20097;-81
2022/11/13 00:12:17;;;;;;;55.08;27.70;;;;;;;12.30;65.67;100258.63;4496134;31;20338;-81
2022/11/13 00:14:43;;;;;;;51.13;26.08;;;;;;;12.27;65.87;100260.56;4491884;31;20126;-82
2022/11/13 00:17:08;;;;;;;47.88;24.90;;;;;;;12.32;65.80;100261.22;4477076;32;20156;-81
2022/11/13 00:19:33;;;;;;;46.80;26.10;;;;;;;12.37;65.65;100268.06;4497307;31;20081;-81
2022/11/13 00:22:03;;;;;;;52.00;25.83;;;;;;;12.36;65.50;100266.34;4482764;31;20099;-81
2022/11/13 00:24:29;;;;;;;50.25;26.42;;;;;;;12.27;65.59;100264.06;4475891;31;20092;-82
2022/11/13 00:26:54;;;;;;;48.55;25.77;;;;;;;12.19;65.83;100264.34;4477045;32;20123;-81
2022/11/13 00:29:20;;;;;;;47.70;24.58;;;;;;;12.20;65.77;100263.41;4496136;31;20364;-80
2022/11/13 00:31:47;;;;;;;54.63;25.67;;;;;;;12.14;65.87;100266.28;4487302;31;20139;-80
2022/11/13 00:34:13;;;;;;;48.13;25.20;;;;;;;12.07;66.13;100264.81;4483707;32;20153;-81
2022/11/13 00:36:38;;;;;;;45.92;24.37;;;;;;;12.02;66.40;100265.88;4470672;32;20159;-82
2022/11/13 00:39:07;;;;;;;52.08;25.42;;;;;;;12.05;66.28;100271.03;4492007;31;20110;-80
2022/11/13 00:41:33;;;;;;;46.63;24.77;;;;;;;12.08;66.12;100278.88;4474168;32;20331;-81
2022/11/13 00:43:58;;;;;;;50.25;24.60;;;;;;;11.70;67.42;100275.78;4497164;31;20156;-81
2022/11/13 00:46:24;;;;;;;48.40;24.42;;;;;;;11.94;66.58;100269.66;4489017;31;20104;-80
2022/11/13 00:48:49;;;;;;;45.33;25.23;;;;;;;12.06;66.18;100262.22;4494253;31;20132;-80
2022/11/13 00:51:15;;;;;;;48.00;23.12;;;;;;;11.98;66.39;100267.78;4480231;31;20104;-79
2022/11/13 00:53:40;;;;;;;44.97;23.48;;;;;;;12.02;66.27;100257.97;4473133;32;20123;-80
2022/11/13 00:56:06;;;;;;;44.67;23.05;;;;;;;11.98;66.18;100265.13;4486470;31;20104;-81
2022/11/13 00:58:31;;;;;;;50.95;24.30;;;;;;;12.06;65.84;100267.50;4494104;31;20115;-82
2022/11/13 01:01:07;;;;;;;50.07;23.90;;;;;;;11.98;65.96;100263.34;4487206;31;20458;-82
2022/11/13 01:03:33;;;;;;;47.55;23.95;;;;;;;11.99;65.95;100261.56;4472844;32;20489;-80
2022/11/13 01:05:59;;;;;;;47.97;25.23;;;;;;;12.02;66.00;100252.69;4485882;32;20100;-81
2022/11/13 01:08:24;;;;;;;44.28;23.33;;;;;;;12.06;65.73;100257.78;4486007;32;20165;-80
2022/11/13 01:10:49;;;;;;;44.38;23.20;;;;;;;12.08;65.86;100253.31;4486210;32;20118;-80
2022/11/13 01:13:15;;;;;;;47.03;23.35;;;;;;;12.04;65.91;100245.56;4485620;32;20145;-80
2022/11/13 01:15:42;;;;;;;47.67;22.75;;;;;;;11.97;66.05;100251.03;4486943;31;20123;-82
2022/11/13 01:18:08;;;;;;;45.58;23.23;;;;;;;11.97;66.03;100248.41;4472826;32;20539;-82
2022/11/13 01:20:34;;;;;;;47.15;23.67;;;;;;;11.98;66.02;100247.50;4487303;31;20489;-82
2022/11/13 01:23:00;;;;;;;46.22;22.23;;;;;;;11.97;65.96;100250.19;4485952;32;20103;-82
2022/11/13 01:25:26;;;;;;;44.67;22.95;;;;;;;11.92;66.15;100257.44;4487005;31;20444;-83
2022/11/13 01:27:52;;;;;;;47.85;23.25;;;;;;;11.93;65.99;100246.81;4487094;31;20104;-82
2022/11/13 01:30:17;;;;;;;46.75;23.75;;;;;;;11.96;65.95;100237.94;4486886;31;20136;-82
2022/11/13 01:32:43;;;;;;;44.85;23.87;;;;;;;11.92;66.04;100239.81;4485719;32;20133;-82
2022/11/13 01:35:08;;;;;;;48.65;25.65;;;;;;;11.65;66.87;100228.44;4486883;31;20109;-82
2022/11/13 01:37:34;;;;;;;43.45;23.08;;;;;;;11.83;66.74;100237.47;4486730;31;20467;-82
2022/11/13 01:39:59;;;;;;;42.50;21.77;;;;;;;11.88;66.37;100232.91;4486792;31;20140;-82
2022/11/13 01:42:25;;;;;;;42.80;21.95;;;;;;;11.90;66.14;100227.56;4486258;31;20084;-81
2022/11/13 01:44:51;;;;;;;41.42;23.10;;;;;;;11.92;65.86;100223.13;4485491;32;20172;-82
2022/11/13 01:47:17;;;;;;;43.67;23.30;;;;;;;11.92;65.76;100231.03;4485637;32;20104;-83
2022/11/13 01:49:44;;;;;;;44.05;22.45;;;;;;;11.87;65.63;100228.50;4485347;32;20092;-82
2022/11/13 01:52:11;;;;;;;39.65;21.77;;;;;;;11.91;65.44;100224.88;4485367;32;20084;-82
2022/11/13 01:54:49;;;;;;;42.05;21.35;;;;;;;11.87;65.35;100214.47;4486330;31;20127;-82
2022/11/13 01:57:16;;;;;;;43.92;22.05;;;;;;;11.88;65.33;100216.16;4472218;32;20139;-82
2022/11/13 01:59:46;;;;;;;46.05;23.02;;;;;;;11.86;65.32;100210.97;4485120;32;20096;-82
2022/11/13 02:02:12;;;;;;;44.05;22.90;;;;;;;11.85;65.43;100211.88;4485137;32;20084;-82
2022/11/13 02:04:37;;;;;;;42.62;21.90;;;;;;;11.83;65.52;100213.72;4485007;32;20213;-82
2022/11/13 02:07:08;;;;;;;41.42;21.08;;;;;;;11.84;65.47;100210.16;4486000;31;20100;-82
2022/11/13 02:09:40;;;;;;;41.03;21.30;;;;;;;11.82;65.54;100204.09;4485166;32;20505;-82
2022/11/13 02:12:10;;;;;;;40.30;21.70;;;;;;;11.83;65.43;100203.16;4484985;32;20384;-82
2022/11/13 02:14:37;;;;;;;38.38;20.77;;;;;;;11.84;65.29;100202.25;4484831;32;20117;-82
2022/11/13 02:17:05;;;;;;;41.80;21.75;;;;;;;11.83;65.25;100204.94;4485151;32;20147;-82
2022/11/13 02:19:44;;;;;;;40.40;20.83;;;;;;;11.78;65.38;100197.16;4486113;31;20151;-82
2022/11/13 02:22:25;;;;;;;39.40;20.42;;;;;;;11.79;65.29;100204.19;4471757;32;20111;-82
2022/11/13 02:24:52;;;;;;;38.67;20.75;;;;;;;11.79;65.21;100201.53;4484973;32;20135;-82
2022/11/13 02:27:44;;;;;;;39.25;19.77;;;;;;;11.77;65.08;100198.09;4484684;32;20112;-82
2022/11/13 02:30:22;;;;;;;37.35;19.65;;;;;;;11.77;65.11;100204.22;4486469;32;20118;-82
2022/11/13 02:32:52;;;;;;;44.47;21.35;;;;;;;11.73;65.04;100196.50;4474229;32;20088;-82
2022/11/13 02:35:24;;;;;;;41.25;21.05;;;;;;;11.62;65.26;100191.59;4487341;32;20483;-82
2022/11/13 02:37:50;;;;;;;40.75;20.37;;;;;;;11.64;65.26;100204.75;4487365;32;20134;-81
2022/11/13 02:40:16;;;;;;;42.85;21.33;;;;;;;11.70;65.14;100199.22;4488312;31;20093;-81
2022/11/13 02:42:41;;;;;;;42.22;21.42;;;;;;;11.64;65.23;100194.19;4487923;31;20356;-81
2022/11/13 02:45:07;;;;;;;44.50;23.12;;;;;;;11.60;65.26;100196.91;4487035;32;20135;-81
2022/11/13 02:47:33;;;;;;;46.22;23.38;;;;;;;11.53;65.72;100191.91;4486771;32;20131;-81
2022/11/13 02:49:59;;;;;;;49.65;23.65;;;;;;;11.63;65.50;100192.44;4486965;32;20097;-84
2022/11/13 02:52:24;;;;;;;50.15;24.20;;;;;;;11.60;65.54;100196.06;4486966;32;20120;-83
2022/11/13 02:54:50;;;;;;;48.20;23.10;;;;;;;11.56;65.95;100192.66;4487168;32;20104;-83
2022/11/13 02:57:16;;;;;;;45.42;24.42;;;;;;;11.54;65.94;100191.88;4488221;31;20118;-83
2022/11/13 02:59:41;;;;;;;42.92;22.55;;;;;;;11.60;65.85;100188.16;4487976;31;20428;-81
2022/11/13 03:02:06;;;;;;;44.25;22.92;;;;;;;11.62;65.70;100194.22;4487743;31;20478;-81
2022/11/13 03:04:32;;;;;;;43.00;21.40;;;;;;;11.63;65.58;100189.81;4487909;31;20096;-82
2022/11/13 03:06:57;;;;;;;45.45;23.60;;;;;;;11.60;65.55;100183.72;4487976;31;20118;-82
2022/11/13 03:09:22;;;;;;;46.05;22.20;;;;;;;11.61;65.54;100182.81;4486879;32;20371;-82
2022/11/13 03:11:48;;;;;;;44.92;23.27;;;;;;;11.63;65.46;100181.88;4487975;31;20130;-82
2022/11/13 03:14:13;;;;;;;46.30;23.10;;;;;;;11.60;65.57;100183.72;4487159;32;20104;-82
2022/11/13 03:16:39;;;;;;;44.75;21.87;;;;;;;11.59;65.68;100179.37;4488062;31;20161;-82
2022/11/13 03:19:04;;;;;;;45.72;22.70;;;;;;;11.60;65.70;100181.09;4488093;31;20111;-82
2022/11/13 03:21:30;;;;;;;44.10;22.05;;;;;;;11.61;65.69;100190.75;4487863;31;20411;-82
2022/11/13 03:23:55;;;;;;;42.38;21.70;;;;;;;11.60;65.60;100186.37;4488002;31;20096;-82
2022/11/13 03:26:21;;;;;;;50.38;24.65;;;;;;;11.56;65.68;100197.94;4488109;31;20108;-82
2022/11/13 03:28:46;;;;;;;47.38;22.77;;;;;;;11.49;66.07;100193.84;4487955;31;20084;-82
2022/11/13 03:31:12;;;;;;;51.00;24.17;;;;;;;11.54;66.02;100197.16;4488045;31;20110;-81
2022/11/13 03:33:37;;;;;;;50.25;23.73;;;;;;;11.55;66.17;100195.34;4488002;31;20088;-81
2022/11/13 03:36:03;;;;;;;41.78;21.48;;;;;;;11.48;66.34;100197.38;4486308;32;20471;-80
2022/11/13 03:38:28;;;;;;;45.30;23.05;;;;;;;11.54;66.13;100189.22;4473574;32;20088;-81
2022/11/13 03:40:54;;;;;;;44.70;22.42;;;;;;;11.53;65.88;100187.53;4487891;31;20182;-81
2022/11/13 03:43:19;;;;;;;43.15;20.65;;;;;;;11.57;65.71;100185.59;4487696;31;20104;-81
2022/11/13 03:45:46;;;;;;;44.08;21.08;;;;;;;11.56;65.62;100181.25;4487872;31;20085;-81
2022/11/13 03:48:15;;;;;;;45.03;20.70;;;;;;;11.46;65.59;100185.16;4486800;32;20096;-81
2022/11/13 03:50:47;;;;;;;47.05;23.27;;;;;;;11.48;65.51;100186.81;4486736;32;20080;-81
2022/11/13 03:53:13;;;;;;;46.85;23.67;;;;;;;11.49;65.55;100185.91;4486807;32;20213;-82
2022/11/13 03:55:42;;;;;;;51.35;24.50;;;;;;;11.50;65.66;100192.91;4486780;32;20096;-81
2022/11/13 03:58:08;;;;;;;48.00;23.48;;;;;;;11.26;66.86;100188.47;4487588;31;20118;-82
2022/11/13 04:00:34;;;;;;;45.53;22.40;;;;;;;11.30;66.41;100190.97;4473422;32;20092;-81
2022/11/13 04:02:59;;;;;;;46.05;23.20;;;;;;;11.40;66.06;100191.50;4487513;31;20100;-81
2022/11/13 04:05:25;;;;;;;47.28;24.45;;;;;;;11.43;65.85;100191.38;4486478;32;20100;-81
2022/11/13 04:07:51;;;;;;;52.42;25.15;;;;;;;11.36;66.37;100189.91;4487324;31;20159;-81
2022/11/13 04:10:16;;;;;;;51.10;26.48;;;;;;;11.46;66.23;100180.72;4487806;31;20451;-81
2022/11/13 04:12:42;;;;;;;53.83;26.00;;;;;;;11.43;66.31;100180.84;4487786;31;20096;-80
2022/11/13 04:15:08;;;;;;;55.22;24.27;;;;;;;11.50;66.34;100184.97;4486326;32;20096;-80
2022/11/13 04:17:33;;;;;;;55.40;25.48;;;;;;;11.38;66.59;100185.44;4487505;31;20412;-81
2022/11/13 04:19:59;;;;;;;51.88;26.00;;;;;;;11.17;67.34;100181.75;4487722;31;20141;-81
2022/11/13 04:22:24;;;;;;;52.75;26.17;;;;;;;11.19;67.59;100183.44;4486114;32;20418;-81
2022/11/13 04:24:49;;;;;;;52.42;26.10;;;;;;;11.32;67.29;100189.16;4487766;31;20085;-81
2022/11/13 04:27:15;;;;;;;51.92;25.50;;;;;;;11.33;67.46;100196.13;4473138;32;20122;-82
2022/11/13 04:29:40;;;;;;;54.65;25.00;;;;;;;11.33;67.54;100190.84;4486140;32;20108;-82
2022/11/13 04:32:06;;;;;;;53.50;25.12;;;;;;;11.40;67.24;100183.59;4487409;31;20092;-81
2022/11/13 04:34:31;;;;;;;54.13;26.60;;;;;;;11.39;67.33;100185.34;4487544;32;20126;-82
2022/11/13 04:36:57;;;;;;;57.78;25.88;;;;;;;11.31;67.55;100181.28;4486424;32;20124;-82
2022/11/13 04:39:22;;;;;;;54.35;26.10;;;;;;;11.38;67.33;100186.28;4486268;32;20436;-81
2022/11/13 04:44:32;;;;;;;53.33;25.27;;;;;;;11.34;67.44;100178.53;4487404;32;20123;-81
2022/11/13 04:46:57;;;;;;;53.97;26.77;;;;;;;11.36;67.42;100176.72;4487527;31;20084;-81
2022/11/13 04:49:22;;;;;;;55.47;25.30;;;;;;;11.36;67.58;100179.34;4487446;31;20111;-81
2022/11/13 04:51:48;;;;;;;52.83;26.48;;;;;;;11.27;67.72;100180.53;4485497;32;20128;-81
2022/11/13 04:54:13;;;;;;;55.12;27.05;;;;;;;11.29;67.61;100178.69;4487265;31;20092;-82
2022/11/13 04:56:39;;;;;;;59.88;27.20;;;;;;;11.30;67.37;100180.44;4487312;31;20116;-83
2022/11/13 04:59:04;;;;;;;61.20;28.23;;;;;;;11.36;67.38;100179.34;4487205;31;20364;-82
2022/11/13 05:01:29;;;;;;;57.47;27.67;;;;;;;11.36;67.34;100174.06;4487191;31;20157;-82
2022/11/13 05:03:55;;;;;;;61.53;28.05;;;;;;;11.39;67.14;100176.59;4485776;32;20378;-83
2022/11/13 05:06:20;;;;;;;58.65;25.65;;;;;;;11.41;67.10;100180.03;4486924;32;20400;-82
2022/11/13 05:08:49;;;;;;;53.13;26.77;;;;;;;11.12;68.34;100178.41;4486022;32;20096;-83
2022/11/13 05:11:14;;;;;;;58.80;28.02;;;;;;;11.35;67.28;100173.19;4487294;31;20100;-83
2022/11/13 05:13:40;;;;;;;53.20;25.52;;;;;;;11.34;67.31;100182.03;4487210;31;20467;-83
2022/11/13 05:16:08;;;;;;;59.05;27.20;;;;;;;11.35;67.25;100177.62;4487114;31;20111;-83
2022/11/13 05:18:36;;;;;;;55.17;27.35;;;;;;;11.35;67.29;100175.81;4486055;32;20433;-83
2022/11/13 05:21:01;;;;;;;56.80;26.08;;;;;;;11.26;67.51;100173.53;4486975;31;20156;-83
2022/11/13 05:23:27;;;;;;;49.95;25.62;;;;;;;11.29;67.21;100175.19;4487417;31;20368;-83
2022/11/13 05:25:52;;;;;;;55.97;25.83;;;;;;;11.24;67.18;100177.97;4486912;31;20089;-82
2022/11/13 05:28:18;;;;;;;57.08;26.35;;;;;;;11.31;66.87;100181.28;4485425;32;20140;-82
2022/11/13 05:30:44;;;;;;;55.12;24.77;;;;;;;11.35;66.72;100185.53;4485602;32;20141;-82
2022/11/13 05:33:09;;;;;;;56.13;27.08;;;;;;;11.38;66.68;100186.28;4486860;31;20132;-81
2022/11/13 05:35:35;;;;;;;55.63;28.25;;;;;;;11.39;66.90;100180.06;4487078;32;20089;-82
2022/11/13 05:38:01;;;;;;;65.62;30.67;;;;;;;11.35;67.55;100177.62;4459376;32;20111;-82
2022/11/13 05:40:27;;;;;;;68.70;31.30;;;;;;;11.32;68.21;100183.88;4486849;32;20144;-82
2022/11/13 05:42:53;;;;;;;65.90;31.73;;;;;;;11.42;68.00;100173.84;4472533;32;20129;-82
2022/11/13 05:45:19;;;;;;;67.95;31.05;;;;;;;11.51;68.04;100168.25;4472695;32;20230;-82
2022/11/13 05:47:44;;;;;;;61.65;29.70;;;;;;;11.49;68.21;100169.19;4486550;32;20073;-82
2022/11/13 05:50:10;;;;;;;51.55;26.50;;;;;;;11.53;68.47;100168.16;4486655;32;20122;-82
2022/11/13 05:52:35;;;;;;;53.22;26.70;;;;;;;11.73;67.75;100170.94;4472369;32;20096;-82
2022/11/13 05:55:00;;;;;;;54.78;27.75;;;;;;;11.80;67.41;100167.16;4486813;32;20165;-82
2022/11/13 05:57:26;;;;;;;51.40;25.30;;;;;;;11.74;67.17;100167.41;4486569;32;20126;-82
2022/11/13 05:59:51;;;;;;;48.67;23.83;;;;;;;11.83;66.87;100166.19;4486339;32;20092;-82
2022/11/13 06:02:17;;;;;;;54.08;25.33;;;;;;;11.87;66.57;100161.66;4472165;32;20120;-82
2022/11/13 06:04:42;;;;;;;49.45;24.75;;;;;;;11.86;66.51;100160.78;4473304;32;20084;-82
2022/11/13 06:07:07;;;;;;;45.30;23.83;;;;;;;11.89;66.20;100163.34;4488632;32;20108;-82
2022/11/13 06:09:33;;;;;;;46.37;24.25;;;;;;;11.93;65.92;100159.66;4488290;32;20097;-82
2022/11/13 06:11:58;;;;;;;50.20;26.10;;;;;;;11.92;65.87;100159.75;4474025;32;20096;-82
2022/11/13 06:14:24;;;;;;;48.13;25.45;;;;;;;11.93;65.79;100164.94;4488269;32;20120;-82
2022/11/13 06:16:50;;;;;;;48.20;23.70;;;;;;;11.90;65.84;100162.44;4474518;32;20096;-82
2022/11/13 06:19:18;;;;;;;49.20;25.20;;;;;;;11.89;65.85;100163.34;4474243;32;20118;-82
2022/11/13 06:21:43;;;;;;;53.95;25.20;;;;;;;11.93;65.54;100159.66;4488561;32;20122;-82
2022/11/13 06:24:10;;;;;;;55.30;26.45;;;;;;;11.91;65.75;100156.22;4488541;32;20137;-81
2022/11/13 06:26:37;;;;;;;50.58;26.05;;;;;;;11.37;67.30;100165.22;4474521;32;20145;-81
2022/11/13 06:29:04;;;;;;;50.55;24.90;;;;;;;11.61;66.41;100161.69;4490238;31;20101;-81
2022/11/13 06:31:32;;;;;;;51.53;24.23;;;;;;;11.76;66.08;100164.69;4487532;31;20605;-81
2022/11/13 06:33:58;;;;;;;49.75;24.20;;;;;;;11.90;65.60;100162.44;4503995;31;20084;-81
2022/11/13 06:36:26;;;;;;;48.22;23.73;;;;;;;11.99;65.36;100175.28;4489691;31;20110;-81
2022/11/13 06:38:52;;;;;;;47.55;24.55;;;;;;;12.03;65.20;100169.88;4489805;31;20100;-81
2022/11/13 06:41:22;;;;;;;46.22;23.62;;;;;;;12.07;65.19;100171.47;4489781;31;20123;-82
2022/11/13 06:43:48;;;;;;;42.42;22.45;;;;;;;12.12;65.04;100165.09;4490077;31;20087;-82
2022/11/13 06:46:16;;;;;;;47.97;23.92;;;;;;;12.16;64.65;100164.06;4504269;31;20351;-83
2022/11/13 06:48:41;;;;;;;;;;;;;;;12.20;64.28;100167.44;4490132;31;20107;-82
2022/11/13 06:51:12;;;;;;;42.67;22.25;;;;;;;12.24;64.28;100168.19;4504278;31;20333;-83
2022/11/13 06:53:37;;;;;;;46.15;22.25;;;;;;;12.24;64.26;100174.31;4489819;31;20099;-82
2022/11/13 06:56:04;;;;;;;47.60;23.00;;;;;;;12.26;64.28;100177.75;4503971;31;20469;-82
2022/11/13 06:58:30;;;;;;;46.30;23.23;;;;;;;12.08;64.47;100184.62;4503759;31;20131;-82
2022/11/13 07:00:55;;;;;;;46.45;23.17;;;;;;;12.13;64.33;100177.41;4503948;31;20139;-82
2022/11/13 07:03:23;;;;;;;45.92;21.98;;;;;;;12.25;63.86;100178.69;4503963;31;20096;-82
2022/11/13 07:05:49;;;;;;;48.08;23.08;;;;;;;12.30;63.73;100181.16;4489357;31;20088;-82
2022/11/13 07:08:15;;;;;;;45.63;21.60;;;;;;;12.17;63.79;100189.56;4503581;31;20123;-82
2022/11/13 07:10:41;;;;;;;41.35;20.77;;;;;;;12.13;63.99;100181.78;4489251;31;20128;-82
2022/11/13 07:13:07;;;;;;;42.78;20.10;;;;;;;12.26;63.62;100190.97;4476028;31;20095;-81
2022/11/13 07:15:37;;;;;;;34.00;17.87;;;;;;;12.34;63.43;100195.97;4503410;31;20151;-82
2022/11/13 07:18:04;;;;;;;38.72;20.05;;;;;;;12.39;63.45;100184.28;4489368;31;20171;-82
2022/11/13 07:20:29;;;;;;;39.70;20.10;;;;;;;12.34;63.62;100191.56;4504062;31;20408;-82
2022/11/13 07:22:56;;;;;;;38.40;20.25;;;;;;;12.45;63.25;100188.47;4476193;31;20115;-82
2022/11/13 07:25:22;;;;;;;34.75;18.08;;;;;;;12.48;62.74;100190.16;4489490;31;20087;-81
2022/11/13 07:27:47;;;;;;;40.80;19.92;;;;;;;12.53;62.31;100189.00;4503690;31;20488;-82
2022/11/13 07:30:12;;;;;;;36.28;18.27;;;;;;;12.52;62.34;100194.38;4503482;31;20135;-81
2022/11/13 07:32:38;;;;;;;38.92;19.25;;;;;;;12.33;62.58;100194.25;4503639;31;20401;-81
2022/11/13 07:35:04;;;;;;;38.55;20.37;;;;;;;12.48;62.06;100191.00;4503595;31;20432;-80
2022/11/13 07:37:29;;;;;;;38.83;18.45;;;;;;;12.48;61.88;100185.72;4475243;32;20396;-81
2022/11/13 07:39:54;;;;;;;40.08;19.58;;;;;;;12.53;61.63;100190.81;4487812;32;20110;-83
2022/11/13 07:42:20;;;;;;;40.45;20.42;;;;;;;12.45;61.06;100188.47;4460263;32;20088;-81
2022/11/13 07:44:45;;;;;;;40.08;19.75;;;;;;;12.56;60.61;100188.91;4487742;32;20108;-83
2022/11/13 07:47:11;;;;;;;34.05;18.37;;;;;;;12.59;60.71;100190.56;4473659;32;20176;-83
2022/11/13 07:49:36;;;;;;;35.55;17.52;;;;;;;12.58;60.58;100183.56;4487782;32;20120;-83
2022/11/13 07:52:01;;;;;;;36.35;18.87;;;;;;;12.56;60.33;100185.41;4473545;32;20085;-83
2022/11/13 07:54:27;;;;;;;34.97;18.33;;;;;;;12.58;60.13;100196.78;4487921;32;20153;-84
2022/11/13 07:56:52;;;;;;;40.95;19.90;;;;;;;12.67;59.97;100188.47;4487777;32;20092;-81
2022/11/13 07:59:18;;;;;;;39.85;21.27;;;;;;;12.71;59.83;100190.06;4473538;32;20144;-82
2022/11/13 08:01:43;;;;;;;43.55;21.75;;;;;;;12.70;59.87;100188.34;4473320;32;20115;-82
2022/11/13 08:04:08;;;;;;;42.53;20.98;;;;;;;12.54;60.34;100190.75;4487817;32;20076;-82
2022/11/13 08:06:36;;;;;;;42.22;21.20;;;;;;;12.66;60.36;100189.37;4473516;32;20129;-83
2022/11/13 08:09:01;;;;;;;46.20;23.08;;;;;;;12.75;60.49;100193.47;4487745;32;20084;-83
2022/11/13 08:11:27;;;;;;;50.42;23.67;;;;;;;12.76;60.78;100185.44;4487852;32;20107;-83
2022/11/13 08:13:52;;;;;;;40.72;21.85;;;;;;;12.92;60.62;100190.97;4487841;32;20080;-83
2022/11/13 08:16:18;;;;;;;51.75;23.60;;;;;;;13.00;60.69;100195.94;4494197;31;20372;-83
2022/11/13 08:18:43;;;;;;;47.53;23.95;;;;;;;13.06;60.50;100193.03;4494764;31;20114;-82
2022/11/13 08:21:09;;;;;;;50.12;24.33;;;;;;;13.21;60.16;100190.66;4495238;31;20096;-83
2022/11/13 08:23:34;;;;;;;44.72;22.60;;;;;;;13.29;60.21;100192.06;4494249;31;20095;-85
2022/11/13 08:26:04;;;;;;;45.03;23.02;;;;;;;13.39;60.12;100195.19;4479004;31;20176;-86
2022/11/13 08:28:30;;;;;;;43.30;23.35;;;;;;;13.51;60.05;100193.78;4497672;31;20168;-81
2022/11/13 08:30:55;;;;;;;68.50;24.25;;;;;;;13.54;60.03;100193.63;4492721;31;20412;-86
2022/11/13 08:33:21;;;;;;;44.38;22.60;;;;;;;13.45;60.08;100183.47;4487071;32;20085;-83
2022/11/13 08:35:54;;;;;;;43.78;22.58;;;;;;;13.53;60.07;100192.78;4486996;32;20130;-85
2022/11/13 08:38:20;;;;;;;43.47;23.00;;;;;;;13.49;60.49;100193.00;4458333;31;20155;-82
2022/11/13 08:40:49;;;;;;;43.40;21.27;;;;;;;13.51;60.67;100180.56;4454512;31;20512;-83
2022/11/13 08:43:15;;;;;;;46.78;23.73;;;;;;;13.57;60.86;100175.81;4459187;32;20440;-82
2022/11/13 08:45:40;;;;;;;45.75;24.15;;;;;;;13.55;61.11;100177.69;4487270;31;20096;-82
2022/11/13 08:48:05;;;;;;;44.88;23.35;;;;;;;13.65;61.02;100182.56;4468543;31;20420;-84
2022/11/13 08:50:32;;;;;;;45.83;22.42;;;;;;;13.72;60.58;100176.94;4472638;31;20152;-82
2022/11/13 08:52:59;;;;;;;46.67;25.37;;;;;;;13.72;60.32;100173.44;4467160;31;20084;-83
2022/11/13 08:55:25;;;;;;;47.67;23.70;;;;;;;13.74;60.42;100176.88;4480015;31;20103;-82
2022/11/13 08:57:51;;;;;;;48.40;24.52;;;;;;;13.78;60.11;100183.75;4472260;31;20087;-84
2022/11/13 09:00:16;;;;;;;50.55;25.45;;;;;;;13.63;60.36;100179.13;4470312;31;20146;-83
2022/11/13 09:02:42;;;;;;;48.30;25.80;;;;;;;13.73;60.18;100181.31;4492618;31;20131;-82
2022/11/13 09:05:08;;;;;;;49.28;25.70;;;;;;;13.76;59.84;100188.25;4481188;31;20438;-82
2022/11/13 09:07:33;;;;;;;55.00;27.20;;;;;;;13.60;59.58;100190.75;4479419;31;20095;-82
2022/11/13 09:09:59;;;;;;;44.25;23.58;;;;;;;13.67;59.40;100178.91;4480833;31;20091;-82
2022/11/13 09:12:24;;;;;;;46.53;23.85;;;;;;;13.66;59.54;100179.87;4474053;31;20282;-82
2022/11/13 09:14:50;;;;;;;44.22;22.95;;;;;;;13.69;59.59;100181.50;4470867;31;20251;-83
2022/11/13 09:17:16;;;;;;;46.25;23.60;;;;;;;13.70;59.88;100183.25;4469576;32;20137;-84
2022/11/13 09:19:41;;;;;;;46.03;23.85;;;;;;;13.61;60.20;100176.56;4485840;31;20427;-83
2022/11/13 09:22:07;;;;;;;43.90;22.75;;;;;;;13.51;60.07;100189.34;4496293;31;20148;-81
2022/11/13 09:24:32;;;;;;;44.70;22.80;;;;;;;13.59;59.90;100189.00;4454607;32;20168;-82
2022/11/13 09:26:58;;;;;;;41.08;23.52;;;;;;;13.64;59.84;100191.47;4466158;32;20169;-81
2022/11/13 09:29:24;;;;;;;45.65;23.98;;;;;;;13.60;59.94;100179.25;4468106;32;20092;-81
2022/11/13 09:31:50;;;;;;;47.75;23.40;;;;;;;13.60;59.96;100182.78;4482164;31;20096;-81
2022/11/13 09:34:19;;;;;;;43.08;22.48;;;;;;;13.59;60.04;100188.16;4487153;31;20476;-82
2022/11/13 09:36:44;;;;;;;42.22;22.95;;;;;;;13.61;60.16;100173.06;4477587;32;20108;-81
2022/11/13 09:39:10;;;;;;;42.15;23.15;;;;;;;13.24;61.16;100177.28;4494017;31;20366;-81
2022/11/13 09:41:46;;;;;;;43.47;22.70;;;;;;;13.37;60.74;100178.50;4462098;32;20114;-82
2022/11/13 09:44:16;;;;;;;40.20;21.35;;;;;;;13.37;60.68;100167.94;4473479;31;20100;-82
2022/11/13 09:46:49;;;;;;;42.42;22.08;;;;;;;13.44;60.71;100177.28;4480173;32;20153;-82
2022/11/13 09:49:21;;;;;;;45.40;23.00;;;;;;;13.52;60.81;100163.72;4480518;31;20190;-81
2022/11/13 09:51:54;;;;;;;50.35;24.48;;;;;;;13.50;61.15;100160.28;4459348;32;20152;-81
2022/11/13 09:54:20;;;;;;;46.42;23.65;;;;;;;13.47;61.69;100158.66;4471317;32;20395;-81
2022/11/13 09:57:01;;;;;;;44.92;23.12;;;;;;;13.53;61.40;100155.72;4478859;32;20160;-82
2022/11/13 09:59:26;;;;;;;46.42;23.20;;;;;;;13.17;62.20;100164.34;4495494;31;20110;-81
2022/11/13 10:02:07;;;;;;;44.33;22.98;;;;;;;13.51;61.34;100151.44;4487390;31;20456;-82
2022/11/13 10:04:51;;;;;;;44.35;23.52;;;;;;;13.51;61.28;100157.56;4494624;31;20115;-82
2022/11/13 10:07:38;;;;;;;45.80;23.27;;;;;;;13.60;61.08;100151.03;4495403;31;20156;-81
2022/11/13 10:10:31;;;;;;;41.80;23.42;;;;;;;13.71;60.72;100142.56;4488756;31;20117;-82
2022/11/13 10:12:58;;;;;;;46.20;23.25;;;;;;;13.73;60.91;100138.06;4493090;31;20356;-79
2022/11/13 10:15:24;;;;;;;49.10;24.30;;;;;;;13.63;61.28;100142.06;4467365;31;20112;-82
2022/11/13 10:17:54;;;;;;;47.95;25.45;;;;;;;13.70;61.04;100133.78;4472959;31;20092;-82
2022/11/13 10:20:26;;;;;;;47.40;24.60;;;;;;;13.76;60.97;100130.84;4482190;32;20101;-82
2022/11/13 10:23:08;;;;;;;49.60;24.27;;;;;;;13.77;60.90;100121.09;4477546;31;20106;-81
2022/11/13 10:25:35;;;;;;;46.00;23.95;;;;;;;13.66;61.37;100124.25;4473945;32;20153;-80
2022/11/13 10:28:08;;;;;;;49.72;25.02;;;;;;;13.74;61.12;100121.25;4482876;31;20148;-81
2022/11/13 10:30:33;;;;;;;48.15;24.52;;;;;;;13.77;61.07;100121.97;4474728;31;20104;-80
2022/11/13 10:33:10;;;;;;;49.67;24.17;;;;;;;13.82;60.85;100121.75;4492052;31;20223;-81
2022/11/13 10:35:40;;;;;;;44.65;23.23;;;;;;;13.84;60.77;100109.28;4483122;31;20601;-81
2022/11/13 10:38:41;;;;;;;45.85;22.40;;;;;;;13.87;60.80;100100.34;4472570;31;20107;-80
2022/11/13 10:41:16;;;;;;;43.05;22.65;;;;;;;13.74;61.23;100110.66;4469581;32;20483;-80
2022/11/13 10:44:21;;;;;;;47.08;23.65;;;;;;;13.93;60.71;100105.37;4496887;31;20111;-81
2022/11/13 10:46:49;;;;;;;44.60;21.65;;;;;;;13.81;61.19;100096.22;4475519;32;20095;-81
2022/11/13 10:49:20;;;;;;;49.05;24.00;;;;;;;13.95;60.87;100082.31;4475790;32;20134;-80
2022/11/13 10:51:54;;;;;;;45.05;23.42;;;;;;;13.55;62.25;100092.97;4497676;31;20108;-82
2022/11/13 10:54:26;;;;;;;47.45;23.02;;;;;;;13.85;61.45;100087.19;4474424;31;20100;-82
2022/11/13 10:57:19;;;;;;;46.55;24.45;;;;;;;13.93;60.91;100078.88;4494056;31;20100;-81
2022/11/13 10:59:44;;;;;;;48.00;24.17;;;;;;;13.75;60.93;100084.13;4497659;31;20517;-82
2022/11/13 11:02:10;;;;;;;48.95;24.60;;;;;;;13.80;61.22;100070.63;4472844;31;20111;-82
2022/11/13 11:04:35;;;;;;;50.88;24.90;;;;;;;13.86;60.97;100075.63;4495790;31;20139;-82
2022/11/13 11:07:21;;;;;;;49.28;24.75;;;;;;;13.90;60.78;100074.56;4493086;31;20124;-81
2022/11/13 11:09:47;;;;;;;47.47;25.17;;;;;;;13.94;60.74;100069.97;4487538;31;20172;-81
2022/11/13 11:12:20;;;;;;;48.72;26.08;;;;;;;13.96;60.69;100069.00;4483336;32;20114;-81